ZA-0044 weather

Bateleur Airport
Maselsfontein, Northern Cape, South Africa

Public forecast

Using degrees Celsius for public forecast. Weather courtesy of forecast.io.

Closest aviation weather report (METAR) to Bateleur Airport

Closest report is Kimberley Airport, 62.0 nm (114.9 km) ENE. Retrieved 2019/10/22 02:00 UTC (5 minutes ago):

FAKM 220200Z AUTO 13004KT //// // ////// 11/M06 Q1014

Closest aviation forecast (TAF) to Bateleur Airport

Forecast is more than 12 hours old.

Closest forecast is Kimberley Airport, 62.0 nm (114.9 km) ENE. Retrieved 2018/10/29 07:06 UTC (12 months ago):

TAF TAF FAKM 290600Z 2907/2919 33015KT CAVOK TX38/2913Z TN28/2918Z